Airfield :
LOGIN :

Register | Disclaimer

   EN    FR    IT 

 










Legend :    VFR   Marginal VFR   IFR   Intensive IFR   Very Intensive IFR
Visi :
Ceiling :
>= 8 km
>= 3000ft
5 to 8 km
1000 to 3000 ft
1500m to 5 km
500 to 1000 ft
800 to 1500m
200 to 500 ft
< 800m
< 200 ft
Symbols :   Thunderstorms  Fog  Heavy snow  Heavy precipitations  Wind > 20 kt
SIGMETs :     Misc.  Thunderstorms  Icing  Turbulence  Mountain Waves  Volcanic Ashes







- Airport Elevation : 170 ft
- IATA code : KRP


EKKA - Karup

CURRENT METAR :
  • 190420Z AUTO 22011KT 9999NDV BKN008/// BKN140/// 06/05 Q1005

EXPIRED METARs :
  • 190412Z AUTO 22010KT 9999NDV BKN008/// BKN140/// 06/05 Q1005
  • 190350Z AUTO 22010KT 9999NDV BKN009/// BKN130/// 06/05 Q1005
  • 190320Z AUTO 23012KT 9999NDV BKN009/// 07/05 Q1006
  • 190250Z AUTO 23013KT 9999NDV BKN009/// 07/06 Q1006
  • 190220Z AUTO 22010KT 8000NDV OVC008/// 07/06 Q1006
  • 190202Z AUTO 21009KT 180V240 8000NDV BKN009/// 07/06 Q1006
  • 190201Z AUTO 21009KT 180V240 8000NDV BKN009/// 07/06 Q1006
  • 190150Z AUTO 21009KT 8000NDV BKN012/// 07/06 Q1006
  • 190137Z AUTO 20007KT 160V230 8000NDV BKN014/// 07/06 Q1007

TAF TAF EKKA
Valid from the 19 at 03:00 until the 20 at 00:00 UTC


190222Z 1903/1924 20009KT 8000 -RA SCT010 BKN050
TEMPO 1903/1905 2500 RADZ BR BKN004
BECMG 1905/1907 23012KT NSW
TEMPO 1907/1911 24012G25KT 4000 SHRA BKN008 BKN020CB
TEMPO 1911/1921 27015G30KT 6000 -SHRA SCT020CB
No reported NOTAMs for that airfield.



MET'MAP, your aeronautical weather chart ! - Copyright ORBIFLY December 2007 - Disclaimer

ORBIFLY MET'MAP TEAM :

Programming & Development : Alexandra Zaïnal
Concept & Development : Baudouin d'Aumeries
Co-Development & Prog : Marc-Olivier Méhu
Technical & hardware support : Manuel Goepfert

Contact : metmap@orbifly.com




SOURCES & CREDITS :

   NOAA